createdAt,value
2019-01-30T00:00:51.666Z,28.90
2019-01-30T00:01:51.643Z,24.20
2019-01-30T00:02:51.633Z,25.70
2019-01-30T00:03:51.626Z,29.00
2019-01-30T00:04:51.611Z,27.10
2019-01-30T00:05:51.611Z,26.10
2019-01-30T00:06:51.590Z,29.70
2019-01-30T00:07:51.580Z,37.90
2019-01-30T00:08:51.582Z,30.70
2019-01-30T00:09:51.562Z,35.30
2019-01-30T00:10:51.559Z,38.20
2019-01-30T00:11:51.539Z,35.70
2019-01-30T00:12:51.527Z,35.80
2019-01-30T00:13:51.519Z,36.60
2019-01-30T00:14:51.508Z,40.50
2019-01-30T00:15:56.420Z,30.90
2019-01-30T00:16:52.483Z,32.40
2019-01-30T00:17:51.474Z,28.70
2019-01-30T00:18:51.463Z,27.20
2019-01-30T00:19:51.453Z,24.80
2019-01-30T00:20:51.451Z,26.50
2019-01-30T00:21:51.434Z,32.50
2019-01-30T00:22:51.421Z,33.00
2019-01-30T00:23:51.410Z,31.70
2019-01-30T00:24:51.400Z,27.80
2019-01-30T00:25:51.401Z,33.10
2019-01-30T00:26:51.381Z,29.60
2019-01-30T00:27:51.370Z,30.40
2019-01-30T00:28:51.358Z,34.00
2019-01-30T00:29:51.346Z,29.10
2019-01-30T00:30:51.344Z,32.50
2019-01-30T00:31:51.324Z,28.60
2019-01-30T00:32:51.314Z,27.20
2019-01-30T00:33:51.307Z,27.80
2019-01-30T00:34:51.293Z,36.60
2019-01-30T00:35:51.292Z,34.50
2019-01-30T00:36:51.273Z,39.60
2019-01-30T00:37:51.263Z,34.50
2019-01-30T00:38:51.254Z,38.80
2019-01-30T00:39:51.242Z,31.00
2019-01-30T00:40:51.240Z,35.00
2019-01-30T00:41:51.219Z,38.40
2019-01-30T00:42:51.208Z,32.70
2019-01-30T00:43:51.199Z,36.40
2019-01-30T00:44:51.189Z,35.40
2019-01-30T00:45:51.186Z,30.20
2019-01-30T00:46:51.165Z,29.40
2019-01-30T00:47:51.156Z,32.20
2019-01-30T00:48:51.144Z,29.80
2019-01-30T00:49:51.133Z,25.10
2019-01-30T00:50:51.130Z,26.60
2019-01-30T00:51:51.111Z,30.00
2019-01-30T00:52:51.105Z,33.30
2019-01-30T00:53:51.092Z,32.20
2019-01-30T00:54:51.079Z,34.70
2019-01-30T00:55:51.078Z,29.30
2019-01-30T00:56:51.057Z,27.90
2019-01-30T00:57:51.047Z,28.80
2019-01-30T00:58:51.036Z,30.70
2019-01-30T00:59:51.025Z,30.80
2019-01-30T01:00:51.030Z,30.60
2019-01-30T01:01:51.004Z,31.20
2019-01-30T01:02:51.004Z,31.00
2019-01-30T01:03:50.984Z,35.10
2019-01-30T01:04:50.974Z,32.50
2019-01-30T01:05:50.970Z,34.20
2019-01-30T01:06:50.952Z,31.10
2019-01-30T01:07:50.939Z,31.20
2019-01-30T01:08:50.932Z,34.10
2019-01-30T01:09:50.918Z,32.30
2019-01-30T01:10:50.916Z,33.40
2019-01-30T01:11:50.896Z,30.80
2019-01-30T01:12:50.888Z,29.60
2019-01-30T01:13:50.878Z,33.50
2019-01-30T01:14:50.864Z,37.30
2019-01-30T01:15:50.863Z,36.50
2019-01-30T01:16:50.843Z,31.10
2019-01-30T01:17:50.833Z,35.70
2019-01-30T01:18:50.828Z,34.90
2019-01-30T01:19:50.905Z,31.90
2019-01-30T01:20:50.811Z,33.20
2019-01-30T01:21:50.788Z,41.00
2019-01-30T01:22:50.782Z,30.70
2019-01-30T01:23:50.769Z,34.80
2019-01-30T01:24:50.756Z,34.90
2019-01-30T01:25:50.756Z,32.60
2019-01-30T01:26:50.738Z,30.50
2019-01-30T01:27:50.728Z,33.40
2019-01-30T01:28:50.716Z,33.00
2019-01-30T01:29:50.706Z,29.40
2019-01-30T01:30:50.706Z,29.80
2019-01-30T01:31:50.683Z,26.20
2019-01-30T01:32:50.725Z,30.10
2019-01-30T01:33:50.665Z,34.10
2019-01-30T01:34:50.651Z,33.00
2019-01-30T01:35:50.647Z,32.20
2019-01-30T01:36:50.628Z,32.80
2019-01-30T01:37:50.622Z,33.70
2019-01-30T01:38:50.608Z,31.40
2019-01-30T01:39:51.038Z,28.50
2019-01-30T01:40:50.593Z,31.80
2019-01-30T01:41:50.575Z,32.70
2019-01-30T01:42:50.565Z,32.10
2019-01-30T01:43:50.552Z,32.70
2019-01-30T01:44:50.542Z,29.90
2019-01-30T01:45:50.539Z,28.10
2019-01-30T01:46:50.522Z,26.80
2019-01-30T01:47:50.513Z,25.40
2019-01-30T01:48:50.505Z,29.00
2019-01-30T01:49:50.488Z,33.00
2019-01-30T01:50:50.486Z,26.10
2019-01-30T01:51:50.467Z,28.70
2019-01-30T01:52:50.459Z,26.10
2019-01-30T01:53:50.447Z,27.90
2019-01-30T01:54:50.435Z,24.60
2019-01-30T01:55:50.438Z,27.40
2019-01-30T01:56:50.415Z,27.60
2019-01-30T01:57:50.402Z,34.30
2019-01-30T01:58:50.394Z,28.90
2019-01-30T01:59:50.380Z,30.00
2019-01-30T02:00:50.382Z,30.00
2019-01-30T02:01:50.358Z,26.00
2019-01-30T02:02:50.349Z,28.20
2019-01-30T02:03:50.339Z,29.40
2019-01-30T02:04:50.329Z,26.80
2019-01-30T02:05:50.331Z,28.90
2019-01-30T02:06:50.308Z,26.30
2019-01-30T02:07:50.295Z,30.40
2019-01-30T02:08:50.283Z,39.20
2019-01-30T02:09:50.273Z,31.00
2019-01-30T02:10:50.271Z,31.40
2019-01-30T02:11:50.254Z,32.60
2019-01-30T02:12:50.248Z,30.80
2019-01-30T02:13:50.230Z,29.60
2019-01-30T02:14:50.219Z,29.90
2019-01-30T02:15:50.248Z,27.70
2019-01-30T02:16:50.202Z,33.70
2019-01-30T02:17:50.191Z,32.60
2019-01-30T02:18:50.180Z,31.40
2019-01-30T02:19:50.165Z,32.40
2019-01-30T02:20:50.157Z,29.70
2019-01-30T02:21:50.154Z,31.60
2019-01-30T02:22:50.137Z,27.10
2019-01-30T02:23:50.226Z,29.70
2019-01-30T02:24:50.113Z,32.50
2019-01-30T02:25:50.102Z,35.10
2019-01-30T02:26:50.102Z,35.10
2019-01-30T02:27:50.084Z,35.60
2019-01-30T02:28:50.069Z,36.20
2019-01-30T02:29:50.066Z,39.30
2019-01-30T02:30:50.049Z,32.50
2019-01-30T02:31:50.045Z,32.80
2019-01-30T02:32:50.027Z,37.10
2019-01-30T02:33:50.021Z,32.10
2019-01-30T02:34:50.008Z,34.40
2019-01-30T02:35:49.995Z,31.50
2019-01-30T02:36:50.000Z,30.80
2019-01-30T02:37:50.075Z,29.40
2019-01-30T02:38:49.964Z,41.20
2019-01-30T02:39:49.953Z,33.20
2019-01-30T02:40:49.941Z,33.10
2019-01-30T02:41:49.938Z,33.50
2019-01-30T02:42:49.932Z,33.50
2019-01-30T02:43:49.911Z,32.30
2019-01-30T02:44:49.903Z,32.70
2019-01-30T02:45:49.889Z,32.30
2019-01-30T02:46:49.891Z,35.00
2019-01-30T02:47:49.872Z,36.10
2019-01-30T02:48:49.857Z,33.80
2019-01-30T02:49:49.844Z,36.70
2019-01-30T02:50:49.835Z,33.60
2019-01-30T02:51:49.835Z,33.60
2019-01-30T02:52:49.816Z,36.50
2019-01-30T02:53:49.804Z,34.20
2019-01-30T02:54:49.791Z,33.50
2019-01-30T02:55:49.782Z,31.20
2019-01-30T02:56:49.780Z,31.40
2019-01-30T02:57:49.763Z,30.00
2019-01-30T02:58:49.747Z,37.10
2019-01-30T02:59:49.736Z,41.60
2019-01-30T03:00:58.973Z,36.60
2019-01-30T03:01:50.727Z,36.00
2019-01-30T03:02:49.706Z,34.00
2019-01-30T03:03:49.694Z,33.00
2019-01-30T03:04:49.688Z,32.10
2019-01-30T03:05:49.686Z,32.30
2019-01-30T03:06:49.670Z,31.10
2019-01-30T03:07:49.672Z,29.60
2019-01-30T03:08:49.641Z,27.20
2019-01-30T03:09:49.662Z,29.30
2019-01-30T03:10:49.622Z,31.10
2019-01-30T03:11:49.617Z,29.60
2019-01-30T03:12:49.600Z,31.50
2019-01-30T03:13:49.588Z,26.40
2019-01-30T03:14:49.578Z,30.80
2019-01-30T03:15:49.567Z,29.10
2019-01-30T03:16:49.566Z,29.40
2019-01-30T03:17:49.544Z,29.90
2019-01-30T03:18:49.534Z,30.40
2019-01-30T03:19:49.522Z,29.10
2019-01-30T03:20:49.514Z,30.10
2019-01-30T03:21:49.511Z,29.70
2019-01-30T03:22:49.502Z,29.20
2019-01-30T03:23:49.569Z,28.70
2019-01-30T03:24:49.471Z,29.90
2019-01-30T03:25:49.458Z,28.70
2019-01-30T03:26:49.496Z,31.40
2019-01-30T03:27:49.441Z,28.80
2019-01-30T03:28:49.428Z,29.20
2019-01-30T03:29:49.417Z,28.70
2019-01-30T03:30:49.405Z,31.30
2019-01-30T03:31:49.408Z,29.40
2019-01-30T03:32:49.384Z,32.60
2019-01-30T03:33:49.373Z,30.90
2019-01-30T03:34:49.364Z,29.20
2019-01-30T03:35:49.351Z,29.40
2019-01-30T03:36:49.356Z,29.10
2019-01-30T03:37:49.329Z,29.00
2019-01-30T03:38:49.331Z,28.00
2019-01-30T03:39:49.309Z,23.90
2019-01-30T03:40:49.299Z,26.60
2019-01-30T03:41:49.297Z,26.50
2019-01-30T03:42:49.276Z,28.50
2019-01-30T03:43:49.267Z,28.50
2019-01-30T03:44:49.254Z,26.50
2019-01-30T03:45:49.270Z,29.90
2019-01-30T03:46:49.242Z,28.30
2019-01-30T03:47:49.222Z,27.10
2019-01-30T03:48:49.217Z,32.30
2019-01-30T03:49:49.204Z,29.00
2019-01-30T03:50:49.193Z,29.20
2019-01-30T03:51:49.189Z,27.30
2019-01-30T03:52:49.172Z,26.90
2019-01-30T03:53:49.159Z,29.40
2019-01-30T03:54:49.226Z,29.40
2019-01-30T03:55:49.139Z,30.60
2019-01-30T03:56:49.141Z,28.60
2019-01-30T03:57:49.121Z,28.30
2019-01-30T03:58:49.106Z,29.00
2019-01-30T03:59:49.098Z,28.90
2019-01-30T04:00:49.088Z,30.30
2019-01-30T04:01:49.086Z,29.70
2019-01-30T04:02:49.068Z,26.30
2019-01-30T04:03:49.059Z,29.10
2019-01-30T04:04:49.049Z,31.30
2019-01-30T04:05:49.036Z,29.20
2019-01-30T04:06:49.032Z,28.00
2019-01-30T04:07:49.014Z,29.30
2019-01-30T04:08:49.005Z,27.60
2019-01-30T04:09:48.991Z,27.30
2019-01-30T04:10:48.982Z,30.50
2019-01-30T04:11:48.979Z,26.10
2019-01-30T04:12:48.962Z,27.20
2019-01-30T04:13:48.953Z,28.80
2019-01-30T04:14:48.945Z,27.00
2019-01-30T04:15:48.929Z,29.30
2019-01-30T04:16:48.927Z,29.40
2019-01-30T04:17:48.913Z,30.60
2019-01-30T04:18:48.897Z,28.70
2019-01-30T04:19:48.887Z,29.20
2019-01-30T04:20:48.874Z,29.60
2019-01-30T04:21:48.877Z,31.60
2019-01-30T04:22:48.854Z,30.10
2019-01-30T04:23:48.843Z,27.60
2019-01-30T04:24:48.834Z,29.60
2019-01-30T04:25:48.824Z,31.30
2019-01-30T04:26:48.839Z,28.30
2019-01-30T04:27:48.805Z,30.20
2019-01-30T04:28:48.792Z,31.80
2019-01-30T04:29:48.784Z,29.50
2019-01-30T04:30:48.771Z,30.90
2019-01-30T04:31:48.760Z,27.50
2019-01-30T04:32:48.763Z,31.50
2019-01-30T04:33:48.737Z,31.00
2019-01-30T04:34:48.734Z,26.50
2019-01-30T04:35:48.717Z,28.80
2019-01-30T04:36:48.707Z,31.70
2019-01-30T04:37:48.709Z,27.70
2019-01-30T04:38:48.687Z,30.00
2019-01-30T04:39:48.682Z,29.50
2019-01-30T04:40:48.668Z,28.00
2019-01-30T04:41:48.659Z,27.10
2019-01-30T04:42:48.656Z,30.40
2019-01-30T04:43:48.635Z,30.10
2019-01-30T04:44:48.627Z,31.90
2019-01-30T04:45:48.618Z,27.30
2019-01-30T04:46:48.601Z,27.60
2019-01-30T04:47:48.605Z,28.50
2019-01-30T04:48:48.582Z,29.60
2019-01-30T04:49:48.595Z,31.40
2019-01-30T04:50:48.571Z,30.40
2019-01-30T04:51:48.553Z,28.60
2019-01-30T04:52:48.551Z,28.20
2019-01-30T04:53:48.531Z,27.60
2019-01-30T04:54:48.521Z,26.60
2019-01-30T04:55:48.509Z,29.10
2019-01-30T04:56:48.518Z,27.60
2019-01-30T04:57:48.504Z,27.30
2019-01-30T04:58:48.477Z,28.60
2019-01-30T04:59:48.467Z,35.20
2019-01-30T05:00:48.458Z,35.80
2019-01-30T05:01:49.598Z,27.60
2019-01-30T05:02:48.445Z,26.30
2019-01-30T05:03:48.578Z,25.50
2019-01-30T05:04:48.416Z,28.00
2019-01-30T05:05:48.405Z,27.80
2019-01-30T05:06:48.396Z,27.70
2019-01-30T05:07:48.394Z,30.20
2019-01-30T05:08:48.384Z,30.20
2019-01-30T05:09:48.364Z,30.00
2019-01-30T05:10:48.353Z,32.80
2019-01-30T05:11:48.345Z,31.50
2019-01-30T05:12:48.345Z,28.00
2019-01-30T05:13:48.326Z,29.00
2019-01-30T05:14:48.313Z,26.20
2019-01-30T05:15:48.306Z,26.50
2019-01-30T05:16:48.291Z,27.40
2019-01-30T05:17:48.291Z,25.60
2019-01-30T05:18:48.270Z,27.20
2019-01-30T05:19:48.265Z,27.40
2019-01-30T05:20:48.261Z,30.30
2019-01-30T05:21:48.248Z,30.80
2019-01-30T05:22:48.238Z,27.60
2019-01-30T05:23:48.219Z,28.10
2019-01-30T05:24:48.312Z,28.80
2019-01-30T05:25:48.217Z,27.20
2019-01-30T05:26:48.187Z,34.00
2019-01-30T05:27:48.238Z,30.60
2019-01-30T05:28:48.168Z,30.50
2019-01-30T05:29:48.157Z,29.20
2019-01-30T05:30:48.150Z,40.30
2019-01-30T05:31:48.151Z,29.50
2019-01-30T05:32:48.126Z,28.10
2019-01-30T05:33:48.124Z,30.10
2019-01-30T05:34:48.105Z,32.90
2019-01-30T05:35:48.094Z,32.40
2019-01-30T05:36:48.091Z,32.60
2019-01-30T05:37:51.128Z,30.30
2019-01-30T05:38:48.073Z,29.60
2019-01-30T05:39:48.053Z,27.10
2019-01-30T05:40:48.043Z,27.50
2019-01-30T05:41:48.042Z,30.60
2019-01-30T05:42:48.158Z,38.70
2019-01-30T05:43:48.022Z,29.80
2019-01-30T05:44:48.003Z,26.30
2019-01-30T05:45:47.992Z,28.30
2019-01-30T05:46:47.982Z,27.90
2019-01-30T05:47:47.973Z,27.70
2019-01-30T05:48:48.101Z,27.30
2019-01-30T05:49:47.950Z,28.80
2019-01-30T05:50:47.939Z,28.60
2019-01-30T05:51:47.931Z,30.10
2019-01-30T05:52:47.919Z,26.60
2019-01-30T05:53:47.908Z,27.00
2019-01-30T05:54:47.912Z,25.90
2019-01-30T05:55:47.888Z,28.80
2019-01-30T05:56:47.880Z,31.60
2019-01-30T05:57:47.872Z,30.20
2019-01-30T05:58:47.859Z,30.30
2019-01-30T05:59:47.855Z,26.70
2019-01-30T06:00:47.837Z,28.70
2019-01-30T06:01:47.826Z,30.20
2019-01-30T06:02:47.817Z,35.00
2019-01-30T06:03:47.879Z,30.80
2019-01-30T06:04:47.977Z,29.00
2019-01-30T06:05:47.785Z,30.70
2019-01-30T06:06:47.776Z,31.40
2019-01-30T06:07:47.764Z,29.90
2019-01-30T06:08:47.754Z,37.20
2019-01-30T06:09:47.754Z,30.60
2019-01-30T06:10:47.857Z,34.50
2019-01-30T06:11:47.729Z,31.20
2019-01-30T06:12:47.714Z,30.80
2019-01-30T06:13:47.703Z,31.40
2019-01-30T06:14:47.705Z,31.30
2019-01-30T06:15:47.683Z,29.70
2019-01-30T06:16:47.673Z,30.70
2019-01-30T06:17:47.660Z,30.90
2019-01-30T06:18:47.652Z,29.80
2019-01-30T06:19:47.650Z,30.00
2019-01-30T06:20:47.630Z,29.50
2019-01-30T06:21:47.620Z,27.00
2019-01-30T06:22:47.618Z,28.60
2019-01-30T06:23:47.604Z,29.30
2019-01-30T06:24:47.616Z,26.90
2019-01-30T06:25:47.582Z,28.20
2019-01-30T06:26:47.574Z,28.90
2019-01-30T06:27:47.562Z,26.00
2019-01-30T06:28:47.551Z,28.10
2019-01-30T06:29:47.538Z,27.20
2019-01-30T06:30:47.538Z,29.10
2019-01-30T06:31:47.522Z,27.00
2019-01-30T06:32:47.506Z,26.70
2019-01-30T06:33:47.497Z,26.60
2019-01-30T06:34:47.488Z,27.90
2019-01-30T06:35:47.548Z,28.90
2019-01-30T06:36:47.467Z,27.90
2019-01-30T06:37:47.458Z,28.90
2019-01-30T06:38:47.447Z,26.90
2019-01-30T06:39:47.437Z,26.40
2019-01-30T06:40:47.434Z,26.60
2019-01-30T06:41:47.417Z,28.50
2019-01-30T06:42:47.407Z,26.40
2019-01-30T06:43:47.395Z,26.60
2019-01-30T06:44:47.384Z,27.20
2019-01-30T06:45:47.382Z,27.90
2019-01-30T06:46:47.363Z,28.40
2019-01-30T06:47:47.355Z,26.80
2019-01-30T06:48:47.343Z,27.40
2019-01-30T06:49:47.333Z,25.60
2019-01-30T06:50:47.331Z,29.30
2019-01-30T06:51:47.312Z,26.10
2019-01-30T06:52:47.302Z,29.40
2019-01-30T06:53:47.291Z,28.80
2019-01-30T06:54:47.283Z,27.00
2019-01-30T06:55:47.281Z,29.30
2019-01-30T06:56:47.261Z,28.50
2019-01-30T06:57:47.251Z,28.70
2019-01-30T06:58:47.240Z,30.10
2019-01-30T06:59:47.230Z,28.40
2019-01-30T07:00:47.230Z,25.20
2019-01-30T07:01:47.209Z,23.40
2019-01-30T07:02:47.204Z,26.20
2019-01-30T07:03:47.188Z,24.20
2019-01-30T07:04:47.178Z,25.60
2019-01-30T07:05:47.207Z,24.50
2019-01-30T07:06:47.158Z,27.50
2019-01-30T07:07:47.149Z,24.50
2019-01-30T07:08:47.137Z,27.40
2019-01-30T07:09:47.127Z,26.80
2019-01-30T07:10:47.120Z,26.20
2019-01-30T07:11:47.120Z,28.00
2019-01-30T07:12:47.096Z,27.00
2019-01-30T07:13:47.097Z,28.30
2019-01-30T07:14:47.075Z,26.00
2019-01-30T07:15:47.065Z,24.70
2019-01-30T07:16:47.063Z,27.00
2019-01-30T07:17:47.043Z,31.10
2019-01-30T07:18:47.036Z,30.00
2019-01-30T07:19:47.025Z,31.50
2019-01-30T07:20:47.019Z,28.60
2019-01-30T07:21:47.015Z,30.30
2019-01-30T07:22:46.993Z,26.50
2019-01-30T07:23:46.984Z,30.30
2019-01-30T07:24:46.972Z,28.40
2019-01-30T07:25:46.961Z,29.40
2019-01-30T07:26:46.959Z,29.30
2019-01-30T07:27:46.940Z,29.60
2019-01-30T07:28:46.929Z,29.50
2019-01-30T07:29:46.919Z,29.90
2019-01-30T07:30:46.909Z,28.20
2019-01-30T07:31:46.906Z,28.10
2019-01-30T07:32:46.886Z,28.10
2019-01-30T07:33:46.875Z,25.90
2019-01-30T07:34:46.865Z,35.60
2019-01-30T07:35:46.858Z,32.70
2019-01-30T07:36:46.853Z,28.50
2019-01-30T07:37:46.833Z,27.70
2019-01-30T07:38:46.822Z,27.90
2019-01-30T07:39:46.813Z,33.10
2019-01-30T07:40:46.801Z,31.10
2019-01-30T07:41:46.799Z,32.00
2019-01-30T07:42:46.780Z,31.90
2019-01-30T07:43:46.769Z,35.60
2019-01-30T07:44:50.922Z,30.50
2019-01-30T07:45:46.747Z,34.40
2019-01-30T07:46:46.775Z,37.10
2019-01-30T07:47:46.725Z,33.10
2019-01-30T07:48:46.718Z,35.50
2019-01-30T07:49:46.704Z,33.20
2019-01-30T07:50:46.693Z,35.50
2019-01-30T07:51:46.687Z,32.30
2019-01-30T07:52:46.687Z,33.20
2019-01-30T07:53:46.662Z,39.80
2019-01-30T07:54:46.654Z,37.20
2019-01-30T07:55:46.639Z,34.60
2019-01-30T07:56:46.630Z,38.90
2019-01-30T07:57:46.626Z,33.60
2019-01-30T07:58:46.607Z,35.40
2019-01-30T07:59:46.598Z,38.20
2019-01-30T08:00:46.595Z,33.70
2019-01-30T08:01:46.576Z,34.50
2019-01-30T08:02:52.995Z,40.60
2019-01-30T08:03:47.554Z,37.10
2019-01-30T08:04:46.610Z,39.00
2019-01-30T08:05:46.536Z,38.00
2019-01-30T08:06:46.530Z,36.50
2019-01-30T08:07:46.523Z,38.50
2019-01-30T08:08:46.529Z,38.50
2019-01-30T08:09:46.491Z,36.90
2019-01-30T08:10:46.482Z,39.60
2019-01-30T08:11:46.474Z,37.00
2019-01-30T08:12:46.467Z,40.90
2019-01-30T08:13:46.449Z,36.60
2019-01-30T08:14:46.438Z,44.20
2019-01-30T08:15:46.430Z,36.60
2019-01-30T08:16:48.090Z,37.50
2019-01-30T08:17:46.418Z,35.50
2019-01-30T08:18:46.396Z,37.30
2019-01-30T08:19:46.388Z,39.80
2019-01-30T08:20:46.376Z,36.20
2019-01-30T08:21:46.364Z,35.90
2019-01-30T08:22:46.391Z,36.80
2019-01-30T08:23:46.369Z,36.30
2019-01-30T08:24:46.573Z,34.50
2019-01-30T08:25:46.559Z,36.80
2019-01-30T08:26:46.659Z,35.40
2019-01-30T08:27:46.626Z,34.40
2019-01-30T08:28:46.409Z,36.60
2019-01-30T08:29:46.402Z,37.40
2019-01-30T08:30:46.607Z,35.30
2019-01-30T08:31:46.549Z,34.50
2019-01-30T08:32:46.583Z,33.80
2019-01-30T08:33:46.237Z,41.40
2019-01-30T08:34:46.228Z,34.10
2019-01-30T08:35:46.221Z,33.00
2019-01-30T08:36:46.218Z,33.90
2019-01-30T08:37:46.209Z,38.80
2019-01-30T08:38:46.185Z,37.10
2019-01-30T08:39:46.178Z,37.80
2019-01-30T08:40:46.164Z,34.40
2019-01-30T08:41:46.158Z,31.60
2019-01-30T08:42:46.151Z,31.20
2019-01-30T08:43:46.132Z,35.50
2019-01-30T08:44:47.033Z,34.10
2019-01-30T08:45:46.110Z,34.10
2019-01-30T08:46:46.101Z,32.40
2019-01-30T08:47:46.130Z,33.60
2019-01-30T08:48:46.079Z,35.60
2019-01-30T08:49:46.069Z,34.90
2019-01-30T08:50:46.058Z,36.10
2019-01-30T08:51:46.049Z,34.50
2019-01-30T08:52:46.038Z,35.60
2019-01-30T08:53:46.034Z,32.40
2019-01-30T08:54:46.014Z,30.90
2019-01-30T08:55:46.007Z,32.20
2019-01-30T08:56:53.019Z,32.00
2019-01-30T08:57:46.984Z,32.00
2019-01-30T08:58:45.980Z,35.30
2019-01-30T08:59:45.961Z,32.10
2019-01-30T09:00:45.953Z,34.90
2019-01-30T09:01:45.942Z,33.40
2019-01-30T09:02:45.932Z,31.50
2019-01-30T09:03:45.937Z,29.30
2019-01-30T09:04:45.907Z,28.50
2019-01-30T09:05:45.910Z,29.20
2019-01-30T09:06:45.888Z,29.90
2019-01-30T09:07:45.875Z,29.20
2019-01-30T09:08:45.873Z,28.20
2019-01-30T09:09:45.854Z,34.50
2019-01-30T09:10:45.843Z,32.40
2019-01-30T09:11:45.831Z,29.30
2019-01-30T09:12:45.820Z,27.60
2019-01-30T09:13:45.823Z,29.70
2019-01-30T09:14:45.801Z,29.80
2019-01-30T09:15:45.790Z,29.30
2019-01-30T09:16:45.782Z,28.80
2019-01-30T09:17:45.768Z,29.30
2019-01-30T09:18:45.766Z,29.20
2019-01-30T09:19:45.747Z,27.30
2019-01-30T09:20:45.736Z,30.20
2019-01-30T09:21:45.725Z,27.10
2019-01-30T09:22:45.717Z,30.40
2019-01-30T09:23:45.753Z,29.90
2019-01-30T09:24:45.693Z,27.70
2019-01-30T09:25:45.682Z,28.50
2019-01-30T09:26:45.673Z,28.70
2019-01-30T09:27:45.665Z,29.30
2019-01-30T09:28:45.659Z,29.50
2019-01-30T09:29:45.641Z,27.40
2019-01-30T09:30:45.629Z,29.90
2019-01-30T09:31:45.618Z,28.80
2019-01-30T09:32:45.645Z,26.60
2019-01-30T09:33:45.596Z,26.00
2019-01-30T09:34:45.651Z,27.70
2019-01-30T09:35:45.598Z,26.60
2019-01-30T09:36:45.564Z,29.70
2019-01-30T09:37:45.573Z,29.10
2019-01-30T09:38:45.594Z,28.00
2019-01-30T09:39:45.542Z,25.60
2019-01-30T09:40:45.520Z,23.60
2019-01-30T09:41:45.511Z,23.90
2019-01-30T09:42:45.859Z,23.00
2019-01-30T09:43:45.489Z,25.50
2019-01-30T09:44:45.491Z,26.30
2019-01-30T09:45:45.467Z,24.70
2019-01-30T09:46:45.459Z,24.40
2019-01-30T09:47:45.466Z,29.10
2019-01-30T09:48:45.436Z,20.60
2019-01-30T09:49:45.517Z,22.70
2019-01-30T09:50:45.413Z,24.20
2019-01-30T09:51:45.412Z,22.20
2019-01-30T09:52:45.400Z,20.60
2019-01-30T09:53:45.381Z,22.00
2019-01-30T09:54:45.379Z,21.40
2019-01-30T09:55:45.359Z,18.70
2019-01-30T09:56:45.351Z,20.90
2019-01-30T09:57:45.337Z,20.90
2019-01-30T09:58:45.331Z,20.60
2019-01-30T09:59:45.324Z,21.90
2019-01-30T10:00:45.306Z,22.60
2019-01-30T10:01:45.298Z,18.30
2019-01-30T10:02:45.286Z,19.00
2019-01-30T10:03:45.274Z,19.10
2019-01-30T10:04:45.311Z,19.10
2019-01-30T10:05:45.252Z,17.40
2019-01-30T10:06:45.241Z,18.40
2019-01-30T10:07:45.246Z,17.30
2019-01-30T10:08:45.222Z,15.70
2019-01-30T10:09:45.214Z,17.90
2019-01-30T10:10:45.208Z,17.90
2019-01-30T10:11:45.188Z,16.50
2019-01-30T10:12:45.176Z,16.80
2019-01-30T10:13:45.165Z,16.10
2019-01-30T10:14:45.159Z,18.80
2019-01-30T10:15:45.155Z,19.00
2019-01-30T10:16:45.135Z,19.20
2019-01-30T10:17:45.123Z,17.70
2019-01-30T10:18:45.113Z,18.20
2019-01-30T10:19:45.171Z,17.30
2019-01-30T10:20:45.099Z,16.50
2019-01-30T10:21:45.079Z,17.60
2019-01-30T10:22:45.069Z,17.10
2019-01-30T10:23:45.058Z,16.20
2019-01-30T10:24:45.049Z,16.50
2019-01-30T10:25:45.050Z,17.50
2019-01-30T10:26:45.032Z,16.30
2019-01-30T10:27:45.015Z,15.40
2019-01-30T10:28:45.005Z,16.50
2019-01-30T10:29:45.000Z,18.10
2019-01-30T10:30:44.996Z,17.30
2019-01-30T10:31:44.971Z,16.80
2019-01-30T10:32:44.961Z,16.60
2019-01-30T10:33:46.631Z,16.50
2019-01-30T10:34:44.940Z,18.40
2019-01-30T10:35:44.944Z,16.30
2019-01-30T10:36:44.920Z,15.00
2019-01-30T10:37:44.908Z,16.40
2019-01-30T10:38:44.900Z,15.90
2019-01-30T10:39:44.886Z,14.00
2019-01-30T10:40:44.897Z,16.90
2019-01-30T10:41:44.869Z,16.60
2019-01-30T10:42:44.853Z,15.40
2019-01-30T10:43:44.842Z,15.50
2019-01-30T10:44:44.831Z,14.40
2019-01-30T10:45:44.829Z,15.10
2019-01-30T10:46:44.811Z,14.90
2019-01-30T10:47:44.800Z,15.60
2019-01-30T10:48:44.788Z,13.50
2019-01-30T10:49:44.779Z,13.50
2019-01-30T10:50:44.778Z,13.20
2019-01-30T10:51:44.757Z,14.50
2019-01-30T10:52:44.746Z,13.90
2019-01-30T10:53:44.736Z,11.90
2019-01-30T10:54:44.725Z,13.40
2019-01-30T10:55:44.723Z,13.40
2019-01-30T10:56:44.705Z,13.30
2019-01-30T10:57:44.694Z,13.50
2019-01-30T10:58:44.683Z,13.00
2019-01-30T10:59:44.673Z,13.10
2019-01-30T11:00:44.669Z,12.90
2019-01-30T11:01:44.705Z,12.30
2019-01-30T11:02:46.483Z,12.60
2019-01-30T11:03:44.629Z,14.70
2019-01-30T11:04:44.623Z,13.60
2019-01-30T11:05:44.658Z,13.60
2019-01-30T11:06:44.598Z,20.20
2019-01-30T11:07:44.587Z,15.50
2019-01-30T11:08:44.576Z,14.50
2019-01-30T11:09:44.566Z,14.10
2019-01-30T11:10:44.581Z,13.40
2019-01-30T11:11:44.550Z,12.40
2019-01-30T11:12:44.534Z,11.40
2019-01-30T11:13:44.527Z,14.60
2019-01-30T11:14:44.514Z,14.00
2019-01-30T11:15:44.503Z,13.90
2019-01-30T11:16:44.503Z,15.20
2019-01-30T11:17:44.483Z,15.10
2019-01-30T11:18:44.471Z,11.40
2019-01-30T11:19:45.488Z,13.60
2019-01-30T11:20:44.450Z,12.90
2019-01-30T11:21:44.450Z,15.00
2019-01-30T11:22:44.428Z,13.10
2019-01-30T11:23:44.418Z,15.30
2019-01-30T11:24:44.413Z,12.60
2019-01-30T11:25:44.397Z,12.00
2019-01-30T11:26:44.394Z,11.80
2019-01-30T11:27:44.375Z,13.00
2019-01-30T11:28:44.366Z,12.50
2019-01-30T11:29:44.361Z,11.70
2019-01-30T11:30:44.344Z,12.30
2019-01-30T11:31:44.341Z,11.20
2019-01-30T11:32:44.322Z,12.00
2019-01-30T11:33:44.311Z,12.10
2019-01-30T11:34:44.303Z,10.80
2019-01-30T11:35:44.290Z,13.30
2019-01-30T11:36:44.382Z,11.80
2019-01-30T11:37:44.270Z,12.70
2019-01-30T11:38:44.258Z,11.90
2019-01-30T11:39:44.249Z,12.50
2019-01-30T11:40:44.237Z,12.70
2019-01-30T11:41:44.235Z,12.40
2019-01-30T11:42:44.223Z,13.10
2019-01-30T11:43:44.206Z,12.90
2019-01-30T11:44:44.195Z,12.00
2019-01-30T11:45:44.185Z,13.00
2019-01-30T11:46:44.196Z,13.70
2019-01-30T11:47:44.164Z,13.90
2019-01-30T11:48:44.152Z,15.30
2019-01-30T11:49:44.142Z,14.50
2019-01-30T11:50:44.132Z,15.50
2019-01-30T11:51:44.129Z,12.70
2019-01-30T11:52:44.110Z,15.10
2019-01-30T11:53:44.099Z,12.60
2019-01-30T11:54:44.089Z,14.20
2019-01-30T11:55:44.081Z,14.20
2019-01-30T11:56:44.075Z,14.50
2019-01-30T11:57:44.058Z,14.40
2019-01-30T11:58:44.046Z,14.10
2019-01-30T11:59:44.035Z,13.20
2019-01-30T12:00:44.024Z,14.70
2019-01-30T12:01:44.025Z,14.40
2019-01-30T12:02:47.953Z,14.50
2019-01-30T12:03:43.994Z,14.10
2019-01-30T12:04:43.984Z,14.80
2019-01-30T12:05:43.972Z,14.90
2019-01-30T12:06:43.970Z,13.50
2019-01-30T12:07:43.955Z,16.30
2019-01-30T12:08:43.941Z,15.40
2019-01-30T12:09:43.930Z,14.80
2019-01-30T12:10:43.919Z,13.80
2019-01-30T12:11:43.918Z,15.30
2019-01-30T12:12:43.898Z,14.30
2019-01-30T12:13:43.887Z,15.40
2019-01-30T12:14:43.876Z,15.10
2019-01-30T12:15:43.866Z,15.50
2019-01-30T12:16:43.864Z,14.70
2019-01-30T12:17:43.847Z,14.70
2019-01-30T12:18:43.835Z,16.50
2019-01-30T12:19:43.823Z,15.20
2019-01-30T12:20:43.815Z,18.00
2019-01-30T12:21:43.814Z,15.00
2019-01-30T12:22:43.795Z,14.70
2019-01-30T12:23:43.782Z,15.70
2019-01-30T12:24:43.770Z,13.60
2019-01-30T12:25:43.759Z,13.80
2019-01-30T12:26:43.784Z,13.60
2019-01-30T12:27:43.744Z,13.20
2019-01-30T12:28:43.728Z,14.20
2019-01-30T12:29:43.718Z,14.40
2019-01-30T12:30:43.706Z,14.10
2019-01-30T12:31:43.698Z,14.30
2019-01-30T12:32:43.694Z,13.90
2019-01-30T12:33:43.675Z,15.20
2019-01-30T12:34:43.665Z,13.80
2019-01-30T12:35:43.653Z,13.70
2019-01-30T12:36:43.643Z,14.40
2019-01-30T12:37:43.642Z,15.00
2019-01-30T12:38:43.622Z,14.50
2019-01-30T12:39:43.611Z,14.90
2019-01-30T12:40:43.600Z,13.70
2019-01-30T12:41:43.589Z,14.90
2019-01-30T12:42:43.587Z,14.50
2019-01-30T12:43:45.326Z,16.30
2019-01-30T12:44:43.558Z,16.30
2019-01-30T12:45:43.547Z,14.10
2019-01-30T12:46:43.543Z,17.30
2019-01-30T12:47:43.536Z,16.30
2019-01-30T12:48:43.514Z,16.60
2019-01-30T12:49:43.509Z,14.60
2019-01-30T12:50:43.494Z,14.30
2019-01-30T12:51:43.483Z,14.70
2019-01-30T12:52:43.482Z,13.90